Terminal Aerodrome Forecast
Issued by NWS Sterling, VA

Current Version | Previous Version | Text Only | Print | Product List | Glossary Off
Versions: 1 2 3 4 5 6 7 8 9 10 11 12 13 14 15 16

812
FTUS41 KLWX 091511 AAB
TAFMRB
TAF AMD
KMRB 091511Z 0915/1012 28006KT 5SM BR BKN023 OVC030
     FM091800 VRB03KT 2SM -SHSN OVC020
     FM092100 29008KT P6SM SCT040=

USA.gov is the U.S. government's official web portal to all federal, state and local government web resources and services.